Flight Track Log - Related Links

Times and Time Zones

All times are in EDT time to prevent confusion due to time zone crossing. See the UAL1208 flight status page for this flight to view local times or setup timezone preferences in your user account.

Time Position Orientation Groundspeed Altitude Reporting Facility
EDT Latitude Longitude Course Direction KTS MPH feet Rate Location/Type
Sat 07:02:19 AM 35.8319 -78.8561 256° West 209 241 2,600  Level Washington Center
Sat 07:03:34 AM 35.8083 -78.9522 253° West 242 278 5,700 2,647 Climbing Washington Center
Sat 07:04:00 AM 35.8293 -79.3368 262° West  Level FlightAware Approximate
Sat 07:04:35 AM 35.8142 -79.0447 274° West 247 284 8,600  Level Washington Center
Sat 07:05:00 AM 35.8167 -79.4751 270° West  Level FlightAware Approximate
Sat 07:06:00 AM 35.7978 -79.6109 256° West  Level FlightAware Approximate
Sat 07:06:57 AM 35.8331 -79.2978 275° West 312 359 13,100  Level Atlanta Center
Sat 07:07:00 AM 35.7708 -79.7461 256° West  Level FlightAware Approximate
Sat 07:07:57 AM 35.8275 -79.4183 267° West 346 398 15,200  Level Atlanta Center
Sat 07:08:57 AM 35.8153 -79.5419 263° West 364 419 17,100 1,800 Climbing Atlanta Center
Sat 07:09:57 AM 35.7925 -79.6636 257° West 370 426 18,800 1,450 Climbing Atlanta Center
Sat 07:10:57 AM 35.7739 -79.7875 260° West 387 445 20,000 1,300 Climbing Atlanta Center
Sat 07:11:57 AM 35.7494 -79.9217 257° West 398 458 21,400 1,450 Climbing Atlanta Center
Sat 07:12:57 AM 35.7228 -80.0639 257° West 415 478 22,900 1,450 Climbing Atlanta Center
Sat 07:13:57 AM 35.7000 -80.2003 258° West 415 478 24,300 1,350 Climbing Atlanta Center
Sat 07:14:57 AM 35.7153 -80.3608 277° West 420 483 25,600 1,100 Climbing Atlanta Center
Sat 07:15:57 AM 35.7467 -80.5078 285° West 433 498 26,500 1,150 Climbing Atlanta Center
Sat 07:16:57 AM 35.7822 -80.6522 287° West 438 504 27,900 1,450 Climbing Atlanta Center
Sat 07:17:57 AM 35.8153 -80.7942 286° West 438 504 29,400 1,400 Climbing Atlanta Center
Sat 07:18:57 AM 35.8481 -80.9339 286° West 431 496 30,700 1,250 Climbing Atlanta Center
Sat 07:19:57 AM 35.8786 -81.0761 285° West 431 496 31,900 1,250 Climbing Atlanta Center
Sat 07:20:57 AM 35.9111 -81.2161 286° West 431 496 33,200 1,050 Climbing Atlanta Center
Sat 07:21:57 AM 35.9414 -81.3533 285° West 426 490 34,000 400 Climbing Atlanta Center
Sat 07:22:57 AM 35.9692 -81.4911 284° West 426 490 34,000  Level Atlanta Center
Sat 07:23:57 AM 35.9992 -81.6286 285° West 426 490 34,000  Level Atlanta Center
Sat 07:24:57 AM 36.0286 -81.7458 287° West 414 476 34,000  Level Atlanta Center
Sat 07:25:57 AM 36.0542 -81.8889 283° West 414 476 34,000  Level Atlanta Center
Sat 07:26:57 AM 36.0836 -82.0269 285° West 414 476 34,000  Level Atlanta Center
Sat 07:27:57 AM 36.1147 -82.1625 286° West 414 476 34,000  Level Atlanta Center
Sat 07:28:57 AM 36.1422 -82.3136 283° West 414 476 34,000  Level Atlanta Center
Sat 07:29:57 AM 36.1667 -82.4339 284° West 414 476 34,000  Level Atlanta Center
Sat 07:30:57 AM 36.1933 -82.5697 284° West 414 476 34,000  Level Atlanta Center
Sat 07:31:57 AM 36.2219 -82.7031 285° West 409 471 34,000 550 Level Atlanta Center
Sat 07:32:57 AM 36.2483 -82.8389 284° West 409 471 35,100 950 Climbing Atlanta Center
Sat 07:33:57 AM 36.2747 -82.9672 284° West 409 471 35,900 450 Climbing Atlanta Center
Sat 07:34:57 AM 36.3008 -83.1011 284° West 399 459 36,000 50 Climbing Atlanta Center
Sat 07:35:57 AM 36.3289 -83.2322 285° West 394 453 36,000  Level Atlanta Center
Sat 07:36:57 AM 36.3547 -83.3658 284° West 394 453 36,000  Level Atlanta Center
Sat 07:37:57 AM 36.3803 -83.4997 283° West 399 459 36,000  Level Atlanta Center
Sat 07:39:18 AM 36.4181 -83.6708 285° West 396 456 36,000  Level Indianapolis Center
Sat 07:40:19 AM 36.4467 -83.8047 285° West 400 460 36,000  Level Indianapolis Center
Sat 07:41:20 AM 36.4714 -83.9369 283° West 396 456 36,000  Level Indianapolis Center
Sat 07:42:21 AM 36.4969 -84.0686 284° West 394 453 36,000  Level Indianapolis Center
Sat 07:43:22 AM 36.5250 -84.2092 284° West 395 455 36,000  Level Indianapolis Center
Sat 07:44:23 AM 36.5492 -84.3419 283° West 394 453 36,000  Level Indianapolis Center
Sat 07:45:24 AM 36.5750 -84.4758 284° West 395 455 36,000  Level Indianapolis Center
Sat 07:46:25 AM 36.6014 -84.6244 283° West 393 452 36,000  Level Indianapolis Center
Sat 07:47:26 AM 36.6275 -84.7583 284° West 397 457 36,000  Level Indianapolis Center
Sat 07:48:27 AM 36.6525 -84.8928 283° West 400 460 36,000  Level Indianapolis Center
Sat 07:49:28 AM 36.6764 -85.0258 283° West 397 457 36,000  Level Indianapolis Center
Sat 07:50:29 AM 36.7011 -85.1603 283° West 399 459 36,000  Level Indianapolis Center
Sat 07:51:30 AM 36.7256 -85.2931 283° West 396 456 36,000  Level Indianapolis Center
Sat 07:52:31 AM 36.7497 -85.4278 283° West 398 458 36,000  Level Indianapolis Center
Sat 07:53:32 AM 36.7789 -85.5872 283° West 400 460 36,000  Level Indianapolis Center
Sat 07:54:33 AM 36.8033 -85.7222 283° West 396 456 36,000  Level Indianapolis Center
Sat 07:55:34 AM 36.8269 -85.8578 282° West 398 458 36,000  Level Indianapolis Center
Sat 07:56:35 AM 36.8514 -85.9928 283° West 397 457 36,000  Level Indianapolis Center
Sat 07:57:36 AM 36.8742 -86.1272 282° West 395 455 36,000  Level Indianapolis Center
Sat 07:58:26 AM 36.8947 -86.2425 283° West 405 466 36,000  Level Memphis Center
Sat 07:59:26 AM 36.9181 -86.3764 282° West 399 459 36,000  Level Memphis Center
Sat 08:00:26 AM 36.9408 -86.5103 282° West 399 459 36,000  Level Memphis Center
Sat 08:01:26 AM 36.9658 -86.6414 283° West 393 452 36,000  Level Memphis Center
Sat 08:02:26 AM 36.9883 -86.7756 282° West 393 452 36,000  Level Memphis Center
Sat 08:03:26 AM 37.0111 -86.9094 282° West 393 452 36,000  Level Memphis Center
Sat 08:04:26 AM 37.0333 -87.0411 282° West 393 452 36,000  Level Memphis Center
Sat 08:05:26 AM 37.0556 -87.1753 282° West 393 452 36,000  Level Memphis Center
Sat 08:06:26 AM 37.0772 -87.2914 283° West 393 452 36,000  Level Memphis Center
Sat 08:07:26 AM 37.0994 -87.4258 282° West 393 452 36,000  Level Memphis Center
Sat 08:08:26 AM 37.1189 -87.5525 281° West 388 447 36,000  Level Memphis Center
Sat 08:09:26 AM 37.1428 -87.6869 283° West 393 452 36,000  Level Memphis Center
Sat 08:10:26 AM 37.1642 -87.8164 282° West 393 452 36,000  Level Memphis Center
Sat 08:11:26 AM 37.1856 -87.9486 282° West 393 452 36,000  Level Memphis Center
Sat 08:12:26 AM 37.2069 -88.0833 281° West 387 445 36,000  Level Memphis Center
Sat 08:13:26 AM 37.2325 -88.2311 282° West 387 445 36,000  Level Memphis Center
Sat 08:14:26 AM 37.2556 -88.3661 282° West 392 451 36,000  Level Memphis Center
Sat 08:15:26 AM 37.2764 -88.4983 281° West 392 451 36,000  Level Memphis Center
Sat 08:16:26 AM 37.2969 -88.6336 281° West 392 451 36,000  Level Memphis Center
Sat 08:18:32 AM 37.3367 -88.8983 281° West 393 452 36,000  Level Kansas City Center
Sat 08:19:33 AM 37.3561 -89.0325 280° West 392 451 36,000  Level Kansas City Center
Sat 08:20:34 AM 37.3764 -89.1642 281° West 390 449 36,000  Level Kansas City Center
Sat 08:21:35 AM 37.3958 -89.2975 280° West 388 447 36,000  Level Kansas City Center
Sat 08:22:36 AM 37.4167 -89.4292 281° West 387 445 36,000 -246 Level Kansas City Center
Sat 08:23:37 AM 37.4394 -89.5872 280° West 385 443 35,500 -689 Descending Kansas City Center
Sat 08:24:38 AM 37.4589 -89.7217 280° West 388 447 34,600 -738 Descending Kansas City Center
Sat 08:25:39 AM 37.4786 -89.8556 281° West 391 450 34,000 -344 Descending Kansas City Center
Sat 08:26:40 AM 37.4983 -89.9894 281° West 390 449 33,900 -537 Descending Kansas City Center
Sat 08:27:42 AM 37.5128 -90.1219 278° West 389 448 32,900 -934 Descending Kansas City Center
Sat 08:28:42 AM 37.5272 -90.2575 278° West 389 448 32,000 -446 Descending Kansas City Center
Sat 08:29:43 AM 37.5414 -90.3933 278° West 390 449 32,000  Level Kansas City Center
Sat 08:30:44 AM 37.5564 -90.5311 278° West 392 451 32,000  Level Kansas City Center
Sat 08:31:45 AM 37.5703 -90.6683 277° West 394 453 32,000  Level Kansas City Center
Sat 08:32:46 AM 37.5858 -90.8256 277° West 389 448 32,000  Level Kansas City Center
Sat 08:33:47 AM 37.6000 -90.9636 277° West 393 452 32,000  Level Kansas City Center
Sat 08:34:48 AM 37.6133 -91.1036 277° West 399 459 32,000  Level Kansas City Center
Sat 08:35:50 AM 37.6278 -91.2428 278° West 400 460 32,000  Level Kansas City Center
Sat 08:36:51 AM 37.6411 -91.3831 277° West 400 460 32,000  Level Kansas City Center
Sat 08:37:52 AM 37.6539 -91.5214 277° West 398 458 32,000  Level Kansas City Center
Sat 08:38:53 AM 37.6678 -91.6600 277° West 396 456 32,000  Level Kansas City Center
Sat 08:39:54 AM 37.6814 -91.7989 277° West 397 457 32,000  Level Kansas City Center
Sat 08:40:55 AM 37.6944 -91.9378 277° West 396 456 32,000  Level Kansas City Center
Sat 08:41:57 AM 37.7064 -92.0761 276° West 395 455 32,000  Level Kansas City Center
Sat 08:42:58 AM 37.7178 -92.2167 276° West 400 460 32,000  Level Kansas City Center
Sat 08:43:59 AM 37.7308 -92.3556 277° West 400 460 32,000  Level Kansas City Center
Sat 08:45:00 AM 37.7436 -92.4958 277° West 402 463 32,000  Level Kansas City Center
Sat 08:46:01 AM 37.7564 -92.6358 277° West 403 464 32,000  Level Kansas City Center
Sat 08:47:03 AM 37.7700 -92.7861 277° West 401 461 32,000  Level Kansas City Center
Sat 08:48:04 AM 37.7819 -92.9267 276° West 399 459 32,000  Level Kansas City Center
Sat 08:49:05 AM 37.7931 -93.0661 276° West 399 459 32,000  Level Kansas City Center
Sat 08:50:06 AM 37.8056 -93.2058 277° West 397 457 32,000  Level Kansas City Center
Sat 08:51:08 AM 37.8203 -93.3739 276° West 399 459 32,000  Level Kansas City Center
Sat 08:52:09 AM 37.8306 -93.5142 275° West 401 461 32,000  Level Kansas City Center
Sat 08:53:10 AM 37.8428 -93.6547 276° West 401 461 32,000  Level Kansas City Center
Sat 08:54:11 AM 37.8528 -93.7958 275° West 401 461 32,000  Level Kansas City Center
Sat 08:55:13 AM 37.8639 -93.9372 276° West 402 463 32,000  Level Kansas City Center
Sat 08:56:14 AM 37.8750 -94.0775 276° West 402 463 32,000  Level Kansas City Center
Sat 08:57:15 AM 37.8839 -94.2194 275° West 402 463 32,000  Level Kansas City Center
Sat 08:58:16 AM 37.8947 -94.3628 276° West 407 468 32,000  Level Kansas City Center
Sat 08:59:18 AM 37.9053 -94.5161 275° West 409 471 32,000  Level Kansas City Center
Sat 09:00:19 AM 37.9142 -94.6550 275° West 412 474 32,000  Level Kansas City Center
Sat 09:01:20 AM 37.9256 -94.8150 275° West 410 472 32,000  Level Kansas City Center
Sat 09:02:21 AM 37.9339 -94.9531 274° West 410 472 32,000  Level Kansas City Center
Sat 09:03:22 AM 37.9439 -95.0911 275° West 410 472 32,000  Level Kansas City Center
Sat 09:04:24 AM 37.9550 -95.2506 275° West 407 468 32,000  Level Kansas City Center
Sat 09:05:25 AM 37.9644 -95.3883 275° West 408 470 32,000  Level Kansas City Center
Sat 09:06:26 AM 37.9722 -95.5258 274° West 408 470 32,000  Level Kansas City Center
Sat 09:07:27 AM 37.9822 -95.6881 275° West 411 473 32,000  Level Kansas City Center
Sat 09:08:28 AM 37.9903 -95.8256 274° West 410 472 32,000  Level Kansas City Center
Sat 09:09:29 AM 37.9989 -95.9639 275° West 411 473 32,000  Level Kansas City Center
Sat 09:10:31 AM 38.0103 -96.1314 275° West 415 478 32,000  Level Kansas City Center
Sat 09:11:32 AM 38.0200 -96.2519 276° West 411 473 32,000  Level Kansas City Center
Sat 09:12:33 AM 38.0344 -96.4247 276° West 411 473 32,000  Level Kansas City Center
Sat 09:13:34 AM 38.0461 -96.5681 276° West 409 471 32,000  Level Kansas City Center
Sat 09:14:36 AM 38.0572 -96.7122 276° West 410 472 32,000  Level Kansas City Center
Sat 09:15:37 AM 38.0681 -96.8564 275° West 411 473 32,000  Level Kansas City Center
Sat 09:16:38 AM 38.0786 -96.9994 275° West 409 471 32,000  Level Kansas City Center
Sat 09:17:39 AM 38.0894 -97.1433 276° West 410 472 32,000  Level Kansas City Center
Sat 09:18:41 AM 38.1000 -97.2869 275° West 410 472 32,000  Level Kansas City Center
Sat 09:19:42 AM 38.1100 -97.4281 275° West 406 467 32,000  Level Kansas City Center
Sat 09:20:43 AM 38.1219 -97.5961 275° West 405 466 32,000  Level Kansas City Center
Sat 09:21:44 AM 38.1308 -97.7369 275° West 404 465 32,000  Level Kansas City Center
Sat 09:22:46 AM 38.1408 -97.8633 276° West 406 467 32,000  Level Kansas City Center
Sat 09:23:47 AM 38.1517 -98.0353 275° West 408 470 32,000  Level Kansas City Center
Sat 09:24:48 AM 38.1600 -98.1622 275° West 407 468 32,000  Level Kansas City Center
Sat 09:25:50 AM 38.1803 -98.3011 281° West 411 473 32,000 439 Level Kansas City Center
Sat 09:26:51 AM 38.2147 -98.4347 288° West 401 461 32,900 984 Climbing Kansas City Center
Sat 09:27:52 AM 38.2475 -98.5625 288° West 384 442 34,000 537 Climbing Kansas City Center
Sat 09:28:54 AM 38.2903 -98.7189 289° West 390 449 34,000  Level Kansas City Center
Sat 09:29:55 AM 38.3261 -98.8486 289° West 389 448 34,000  Level Kansas City Center
Sat 09:30:56 AM 38.3631 -98.9786 290° West 390 449 34,000  Level Kansas City Center
Sat 09:31:58 AM 38.4000 -99.1111 290° West 395 455 34,000  Level Kansas City Center
Sat 09:32:59 AM 38.4433 -99.2378 294° West 392 451 34,000  Level Kansas City Center
Sat 09:34:00 AM 38.4883 -99.3656 294° West 393 452 34,000  Level Kansas City Center
Sat 09:35:02 AM 38.5342 -99.4939 295° West 396 456 34,000  Level Kansas City Center
Sat 09:36:03 AM 38.5881 -99.6444 295° West 401 461 34,000  Level Kansas City Center
Sat 09:37:04 AM 38.6233 -99.7758 289° West 406 467 34,000  Level Kansas City Center
Sat 09:38:07 AM 38.6517 -99.9100 285° West 409 471 34,000  Level Kansas City Center
Sat 09:39:07 AM 38.6781 -100.0697 282° West 411 473 34,000  Level Kansas City Center
Sat 09:40:06 AM 38.6950 -100.2094 279° West 423 487 34,000  Level Denver Center
Sat 09:41:07 AM 38.6931 -100.3522 269° West 424 488 34,000  Level Denver Center
Sat 09:42:08 AM 38.6922 -100.5189 270° West 421 484 34,000  Level Denver Center
Sat 09:43:09 AM 38.6900 -100.6656 269° West 430 495 34,000  Level Denver Center
Sat 09:44:09 AM 38.6892 -100.8353 270° West 429 494 34,000  Level Denver Center
Sat 09:45:10 AM 38.6869 -100.9828 269° West 433 498 34,000 295 Level Denver Center
Sat 09:46:11 AM 38.6847 -101.1286 269° West 432 497 34,600 934 Climbing Denver Center
Sat 09:47:12 AM 38.6825 -101.2961 269° West 427 491 35,900 689 Climbing Denver Center
Sat 09:48:13 AM 38.6803 -101.4364 269° West 419 482 36,000 49 Climbing Denver Center
Sat 09:49:14 AM 38.6778 -101.5786 269° West 418 481 36,000  Level Denver Center
Sat 09:50:15 AM 38.6742 -101.7428 268° West 415 478 36,000  Level Denver Center
Sat 09:51:16 AM 38.6711 -101.8861 268° West 419 482 36,000  Level Denver Center
Sat 09:52:17 AM 38.6689 -102.0514 269° West 419 482 36,000  Level Denver Center
Sat 09:53:18 AM 38.6650 -102.1961 268° West 424 488 36,000  Level Denver Center
Sat 09:54:19 AM 38.6617 -102.3417 268° West 428 493 36,000  Level Denver Center
Sat 09:55:21 AM 38.6569 -102.5125 268° West 433 498 36,000  Level Denver Center
Sat 09:56:22 AM 38.6531 -102.6586 268° West 432 497 36,000  Level Denver Center
Sat 09:57:23 AM 38.6489 -102.8281 268° West 435 501 36,000  Level Denver Center
Sat 09:58:24 AM 38.6439 -102.9825 268° West 435 501 36,000  Level Denver Center
Sat 09:59:25 AM 38.6392 -103.1383 268° West 438 504 36,000  Level Denver Center
Sat 10:00:26 AM 38.6342 -103.2925 268° West 436 502 36,000  Level Denver Center
Sat 10:01:27 AM 38.6292 -103.4483 268° West 436 502 36,000  Level Denver Center
Sat 10:02:29 AM 38.6231 -103.6156 267° West 437 503 36,000  Level Denver Center
Sat 10:03:30 AM 38.6181 -103.7625 268° West 435 501 36,000  Level Denver Center
Sat 10:04:31 AM 38.6122 -103.9106 267° West 435 501 36,000  Level Denver Center
Sat 10:05:33 AM 38.6058 -104.0833 267° West 437 503 36,000  Level Denver Center
Sat 10:06:34 AM 38.6000 -104.2239 267° West 438 504 36,000  Level Denver Center
Sat 10:07:35 AM 38.5939 -104.3803 267° West 440 506 36,000  Level Denver Center
Sat 10:08:37 AM 38.5864 -104.5386 267° West 444 511 36,000  Level Denver Center
Sat 10:09:38 AM 38.5792 -104.7250 267° West 439 505 36,000  Level Denver Center
Sat 10:10:39 AM 38.5719 -104.8794 267° West 436 502 36,000  Level Denver Center
Sat 10:11:41 AM 38.5644 -105.0342 267° West 437 503 36,000  Level Denver Center
Sat 10:12:42 AM 38.5572 -105.1869 267° West 433 498 36,000  Level Denver Center
Sat 10:13:44 AM 38.5494 -105.3397 266° West 431 496 36,000  Level Denver Center
Sat 10:14:45 AM 38.5494 -105.4914 270° West 427 491 36,000  Level Denver Center
Sat 10:15:47 AM 38.5500 -105.6436 270° West 427 491 36,000  Level Denver Center
Sat 10:16:48 AM 38.5503 -105.7953 270° West 428 493 36,000  Level Denver Center
Sat 10:17:50 AM 38.5511 -105.9719 270° West 431 496 36,000  Level Denver Center
Sat 10:18:51 AM 38.5497 -106.1194 269° West 433 498 36,000  Level Denver Center
Sat 10:19:53 AM 38.5497 -106.2697 270° West 434 499 36,000  Level Denver Center
Sat 10:20:55 AM 38.5489 -106.4242 270° West 433 498 36,000  Level Denver Center
Sat 10:21:56 AM 38.5486 -106.5789 270° West 433 498 36,000  Level Denver Center
Sat 10:22:58 AM 38.5483 -106.7353 270° West 438 504 36,000  Level Denver Center
Sat 10:24:00 AM 38.5458 -106.9247 269° West 442 509 36,000  Level Denver Center
Sat 10:25:01 AM 38.5453 -107.0808 270° West 439 505 36,000  Level Denver Center
Sat 10:26:03 AM 38.5433 -107.2472 269° West 443 510 36,000  Level Denver Center
Sat 10:27:05 AM 38.5414 -107.3986 269° West 445 512 36,000  Level Denver Center
Sat 10:28:07 AM 38.5386 -107.5769 269° West 450 518 36,000  Level Denver Center
Sat 10:29:08 AM 38.5358 -107.7269 269° West 443 510 36,000  Level Denver Center
Sat 10:30:10 AM 38.5342 -107.8756 269° West 439 505 36,000  Level Denver Center
Sat 10:31:12 AM 38.5322 -108.0486 269° West 435 501 36,000  Level Denver Center
Sat 10:32:14 AM 38.5294 -108.1969 269° West 435 501 36,000  Level Denver Center
Sat 10:33:16 AM 38.5258 -108.3711 269° West 436 502 36,000  Level Denver Center
Sat 10:34:18 AM 38.5225 -108.5194 268° West 436 502 36,000  Level Denver Center
Sat 10:35:20 AM 38.5192 -108.6958 269° West 441 507 36,000  Level Denver Center
Sat 10:36:22 AM 38.5156 -108.8456 268° West 439 505 36,000  Level Denver Center
Sat 10:37:24 AM 38.5125 -108.9983 269° West 447 514 36,000  Level Denver Center
Sat 10:38:26 AM 38.5078 -109.1728 268° West 440 506 36,000  Level Denver Center
Sat 10:39:28 AM 38.5036 -109.3233 268° West 443 510 36,000  Level Denver Center
Sat 10:40:30 AM 38.4981 -109.4981 268° West 439 505 36,000  Level Denver Center
Sat 10:41:32 AM 38.4947 -109.6461 268° West 438 504 36,000  Level Denver Center
Sat 10:42:34 AM 38.4881 -109.8194 267° West 437 503 36,000  Level Denver Center
Sat 10:43:36 AM 38.4833 -109.9636 268° West 426 490 36,000  Level Denver Center
Sat 10:44:38 AM 38.4781 -110.1367 268° West 435 501 36,000  Level Denver Center
Sat 10:45:40 AM 38.4719 -110.2850 267° West 437 503 36,000  Level Denver Center
Sat 10:46:17 AM 38.4697 -110.3858 268° West 439 505 36,000  Level Salt Lake Center
Sat 10:47:18 AM 38.4633 -110.5339 267° West 439 505 36,000  Level Salt Lake Center
Sat 10:48:20 AM 38.4572 -110.7061 267° West 435 501 36,000  Level Salt Lake Center
Sat 10:49:22 AM 38.4519 -110.8544 267° West 436 502 36,000  Level Salt Lake Center
Sat 10:50:24 AM 38.4450 -111.0036 267° West 434 499 36,000  Level Salt Lake Center
Sat 10:51:26 AM 38.4392 -111.1578 267° West 438 504 36,000  Level Salt Lake Center
Sat 10:52:28 AM 38.4303 -111.3392 266° West 430 495 36,000  Level Salt Lake Center
Sat 10:53:29 AM 38.4242 -111.4906 267° West 429 494 36,000  Level Salt Lake Center
Sat 10:54:31 AM 38.4164 -111.6411 266° West 428 493 36,000  Level Salt Lake Center
Sat 10:55:33 AM 38.4092 -111.7914 267° West 426 490 36,000  Level Salt Lake Center
Sat 10:56:35 AM 38.4022 -111.9436 267° West 431 496 36,000  Level Salt Lake Center
Sat 10:57:37 AM 38.3939 -112.0950 266° West 431 496 36,000  Level Salt Lake Center
Sat 10:58:39 AM 38.3847 -112.2789 266° West 435 501 36,000  Level Salt Lake Center
Sat 10:59:41 AM 38.3761 -112.4303 266° West 433 498 36,000  Level Salt Lake Center
Sat 11:00:43 AM 38.3675 -112.5828 266° West 433 498 36,000  Level Salt Lake Center
Sat 11:01:45 AM 38.3586 -112.7350 266° West 434 499 36,000  Level Salt Lake Center
Sat 11:02:47 AM 38.3503 -112.8861 266° West 433 498 36,000  Level Salt Lake Center
Sat 11:03:49 AM 38.3383 -113.0703 265° West 436 502 36,000  Level Salt Lake Center
Sat 11:04:51 AM 38.3297 -113.2208 266° West 434 499 36,000  Level Salt Lake Center
Sat 11:05:53 AM 38.3200 -113.3725 265° West 434 499 36,000  Level Salt Lake Center
Sat 11:06:55 AM 38.3097 -113.5247 265° West 434 499 36,000  Level Salt Lake Center
Sat 11:07:57 AM 38.3003 -113.6772 266° West 435 501 36,000 290 Level Salt Lake Center
Sat 11:08:59 AM 38.2897 -113.8311 265° West 437 503 36,600 726 Climbing Salt Lake Center
Sat 11:10:01 AM 38.2781 -114.0142 265° West 437 503 37,500 677 Climbing Salt Lake Center
Sat 11:11:03 AM 38.2672 -114.1700 265° West 441 507 38,000 242 Climbing Salt Lake Center
Sat 11:12:05 AM 38.2550 -114.3289 264° West 450 518 38,000  Level Salt Lake Center
Sat 11:13:07 AM 38.2450 -114.4864 265° West 450 518 38,000  Level Salt Lake Center
Sat 11:14:09 AM 38.2353 -114.6447 266° West 452 520 38,000  Level Salt Lake Center
Sat 11:15:11 AM 38.2239 -114.8342 266° West 451 519 38,000  Level Salt Lake Center
Sat 11:16:13 AM 38.2147 -114.9908 266° West 448 516 38,000  Level Salt Lake Center
Sat 11:17:15 AM 38.2036 -115.1464 265° West 445 512 38,000  Level Salt Lake Center
Sat 11:18:17 AM 38.1939 -115.3022 266° West 444 511 38,000  Level Salt Lake Center
Sat 11:19:19 AM 38.1828 -115.4683 265° West 443 510 38,000  Level Salt Lake Center
Sat 11:20:21 AM 38.1725 -115.6222 265° West 440 506 38,000  Level Salt Lake Center
Sat 11:21:23 AM 38.1614 -115.7778 265° West 441 507 38,000  Level Salt Lake Center
Sat 11:22:25 AM 38.1503 -115.9333 265° West 441 507 38,000  Level Salt Lake Center
Sat 11:23:27 AM 38.1386 -116.0894 265° West 442 509 38,000  Level Salt Lake Center
Sat 11:24:29 AM 38.1253 -116.2769 265° West 445 512 38,000  Level Salt Lake Center
Sat 11:25:31 AM 38.1133 -116.4333 265° West 444 511 38,000  Level Salt Lake Center
Sat 11:26:33 AM 38.1006 -116.5894 264° West 444 511 38,000  Level Salt Lake Center
Sat 11:27:35 AM 38.0883 -116.7436 264° West 440 506 38,000  Level Salt Lake Center
Sat 11:28:37 AM 38.0758 -116.8997 264° West 442 509 38,000  Level Salt Lake Center
Sat 11:29:39 AM 38.0628 -117.0578 264° West 446 513 38,000  Level Salt Lake Center
Sat 11:30:41 AM 38.0475 -117.2217 263° West 449 517 38,000  Level Salt Lake Center
Sat 11:31:43 AM 38.0361 -117.3850 265° West 456 525 38,000  Level Salt Lake Center
Sat 11:32:45 AM 38.0236 -117.5422 264° West 448 516 38,000  Level Salt Lake Center
Sat 11:33:47 AM 38.0072 -117.7331 264° West 450 518 38,000  Level Salt Lake Center
Sat 11:34:49 AM 37.9919 -117.8886 263° West 445 512 38,000  Level Salt Lake Center
Sat 11:35:51 AM 37.9750 -118.0442 262° West 447 514 38,000  Level Salt Lake Center
Sat 11:36:53 AM 37.9581 -118.2011 262° West 449 517 38,000  Level Salt Lake Center
Sat 11:37:55 AM 37.9411 -118.3564 262° West 447 514 38,000  Level Salt Lake Center
Sat 11:39:14 AM 37.9161 -118.5747 262° West 445 512 38,000  Level Oakland Center
Sat 11:40:15 AM 37.8986 -118.7319 262° West 450 518 38,000  Level Oakland Center
Sat 11:41:17 AM 37.8817 -118.8867 262° West 446 513 38,000  Level Oakland Center
Sat 11:42:18 AM 37.8633 -119.0531 262° West 445 512 38,000  Level Oakland Center
Sat 11:43:19 AM 37.8456 -119.2044 262° West 438 504 38,000  Level Oakland Center
Sat 11:44:21 AM 37.8283 -119.3575 262° West 438 504 38,000  Level Oakland Center
Sat 11:45:22 AM 37.8103 -119.5072 261° West 432 497 38,000  Level Oakland Center
Sat 11:46:23 AM 37.7922 -119.6578 261° West 432 497 38,000 -49 Level Oakland Center
Sat 11:47:25 AM 37.7736 -119.8083 261° West 432 497 37,900 -537 Descending Oakland Center
Sat 11:48:26 AM 37.7556 -119.9583 261° West 430 495 36,900 -1,561 Descending Oakland Center
Sat 11:49:28 AM 37.7372 -120.1106 261° West 435 501 34,700 -2,439 Descending Oakland Center
Sat 11:50:29 AM 37.7186 -120.2647 261° West 440 506 31,900 -2,705 Descending Oakland Center
Sat 11:51:30 AM 37.6928 -120.4467 260° West 437 503 29,200 -2,390 Descending Oakland Center
Sat 11:52:32 AM 37.6750 -120.5908 261° West 419 482 27,000 -2,098 Descending Oakland Center
Sat 11:53:33 AM 37.6575 -120.7311 261° West 405 466 24,900 -1,512 Descending Oakland Center
Sat 11:54:35 AM 37.6394 -120.8664 260° West 393 452 23,900 -1,220 Descending Oakland Center
Sat 11:55:36 AM 37.6231 -120.9900 261° West 364 419 22,400 -1,951 Descending Oakland Center
Sat 11:56:38 AM 37.6106 -121.1092 262° West 344 396 19,900 -2,244 Descending Oakland Center
Sat 11:57:39 AM 37.5981 -121.2211 262° West 346 398 17,800 -2,293 Descending Oakland Center
Sat 11:58:41 AM 37.5814 -121.3592 261° West 333 383 15,200 -2,196 Descending Oakland Center
Sat 11:59:31 AM 37.5667 -121.4500 258° West 324 373 13,700 -1,930 Descending Northern Cal TRACON
Sat 12:00:36 PM 37.5500 -121.5667 260° West 312 359 11,500 -1,850 Descending Northern Cal TRACON
Sat 12:01:31 PM 37.5333 -121.6667 258° West 308 354 10,000 -1,043 Descending Northern Cal TRACON
Sat 12:02:31 PM 37.5167 -121.7667 258° West 283 326 9,500 -900 Descending Northern Cal TRACON
Sat 12:03:31 PM 37.5000 -121.8500 256° West 277 319 8,200 -1,150 Descending Northern Cal TRACON
Sat 12:04:31 PM 37.4833 -121.9500 258° West 269 310 7,200 -1,100 Descending Northern Cal TRACON
Sat 12:05:31 PM 37.5000 -122.0333 284° West 248 285 6,000 -1,050 Descending Northern Cal TRACON
Sat 12:06:31 PM 37.5333 -122.1167 297° West 240 276 5,100 -900 Descending Northern Cal TRACON

Login

Don't have an account? Register now (free) for customized features, flight alerts, and more!